Time;durP1;ratioP1;P1;durP2;ratioP2;P2;SDS_P1;SDS_P2;PMS_P1;PMS_P2;Temp;Humidity;BMP_temperature;BMP_pressure;BME280_temperature;BME280_humidity;BME280_pressure;Samples;Min_cycle;Max_cycle;Signal;HPM_P1;HPM_P2
2022/03/18 00:00:18;;;;;;;61.78;47.30;;;10.50;63.00;;;;;;20768;6829;118091;-76
2022/03/18 00:02:41;;;;;;;70.22;56.45;;;10.40;63.30;;;;;;20540;6829;306120;-78
2022/03/18 00:05:07;;;;;;;62.23;47.70;;;10.30;63.20;;;;;;20775;6829;121365;-76
2022/03/18 00:07:33;;;;;;;69.40;56.93;;;10.20;63.10;;;;;;20551;6829;277909;-76
2022/03/18 00:09:59;;;;;;;66.00;56.27;;;10.50;63.00;;;;;;20557;6829;307444;-77
2022/03/18 00:12:25;;;;;;;57.03;45.77;;;10.50;63.00;;;;;;20770;6829;117471;-76
2022/03/18 00:14:50;;;;;;;64.87;53.75;;;10.40;63.00;;;;;;20555;6829;307453;-76
2022/03/18 00:17:16;;;;;;;54.57;43.80;;;10.40;63.30;;;;;;20752;6829;117427;-76
2022/03/18 00:19:42;;;;;;;63.47;52.90;;;10.30;63.30;;;;;;20563;6829;306835;-76
2022/03/18 00:22:07;;;;;;;64.40;53.63;;;10.40;63.70;;;;;;20553;6829;306577;-76
2022/03/18 00:24:33;;;;;;;62.30;52.13;;;10.50;62.70;;;;;;20539;6829;340607;-76
2022/03/18 00:26:58;;;;;;;53.00;41.80;;;10.70;62.00;;;;;;20766;6829;117356;-76
2022/03/18 00:29:25;;;;;;;51.53;39.13;;;10.60;61.90;;;;;;20743;6829;121133;-76
2022/03/18 00:31:49;;;;;;;46.77;36.90;;;10.20;62.80;;;;;;20770;6829;118111;-76
2022/03/18 00:34:15;;;;;;;46.57;36.30;;;10.00;63.80;;;;;;20779;6829;117488;-76
2022/03/18 00:36:41;;;;;;;43.73;35.30;;;9.80;65.60;;;;;;20771;6829;117416;-76
2022/03/18 00:39:06;;;;;;;52.47;44.35;;;9.60;66.00;;;;;;20562;6829;307109;-76
2022/03/18 00:41:32;;;;;;;53.73;44.60;;;9.80;66.10;;;;;;20536;6829;307290;-76
2022/03/18 00:43:57;;;;;;;51.13;44.60;;;10.10;64.10;;;;;;20548;6829;282728;-76
2022/03/18 00:46:24;;;;;;;52.30;45.12;;;10.40;62.80;;;;;;20554;6829;278574;-76
2022/03/18 00:54:20;;;;;;;42.00;32.13;;;10.50;61.40;;;;;;20757;6828;117341;-76
2022/03/18 00:56:45;;;;;;;39.97;32.27;;;10.10;62.60;;;;;;20763;6829;117821;-76
2022/03/18 00:59:11;;;;;;;39.50;32.27;;;9.60;65.30;;;;;;20745;6829;117567;-76
2022/03/18 01:01:37;;;;;;;37.20;30.23;;;9.50;65.30;;;;;;20754;6829;117779;-76
2022/03/18 01:04:04;;;;;;;38.53;32.10;;;9.30;66.90;;;;;;20758;6829;118819;-76
2022/03/18 01:06:28;;;;;;;48.72;41.80;;;9.20;66.80;;;;;;20531;6829;337155;-75
2022/03/18 01:08:54;;;;;;;46.73;35.70;;;9.50;67.10;;;;;;20766;6829;123084;-75
2022/03/18 01:11:20;;;;;;;40.77;32.90;;;9.50;67.30;;;;;;20755;6829;117349;-76
2022/03/18 01:13:46;;;;;;;45.85;40.17;;;9.40;66.60;;;;;;20558;6829;337311;-75
2022/03/18 01:16:11;;;;;;;45.55;40.65;;;9.70;66.70;;;;;;20551;6829;307041;-75
2022/03/18 01:18:39;;;;;;;40.43;33.90;;;10.00;64.60;;;;;;20766;6829;118370;-76
2022/03/18 01:21:04;;;;;;;36.60;30.47;;;10.00;64.10;;;;;;20753;6829;117458;-78
2022/03/18 01:23:30;;;;;;;43.40;37.50;;;9.90;65.70;;;;;;20527;6829;278464;-81
2022/03/18 01:25:56;;;;;;;43.47;38.87;;;9.90;65.70;;;;;;20551;6829;308226;-75
2022/03/18 01:28:22;;;;;;;39.80;32.53;;;10.20;63.40;;;;;;20738;6829;117236;-76
2022/03/18 01:30:47;;;;;;;44.77;38.83;;;10.10;63.00;;;;;;20532;6829;310106;-78
2022/03/18 01:33:12;;;;;;;42.90;38.08;;;10.20;62.90;;;;;;20524;6829;277449;-76
2022/03/18 01:35:39;;;;;;;38.25;31.37;;;10.20;62.10;;;;;;20756;6829;118039;-76
2022/03/18 01:38:04;;;;;;;40.37;36.03;;;10.20;62.10;;;;;;20554;6829;306635;-76
2022/03/18 01:40:31;;;;;;;36.07;29.73;;;10.30;62.60;;;;;;20769;6829;117542;-76
2022/03/18 01:42:56;;;;;;;36.63;29.60;;;9.90;64.20;;;;;;20767;6829;117438;-76
2022/03/18 01:45:22;;;;;;;39.40;35.20;;;9.90;64.10;;;;;;20542;6829;281658;-76
2022/03/18 01:47:48;;;;;;;32.60;28.62;;;9.90;64.10;;;;;;20768;6829;118282;-75
2022/03/18 01:50:14;;;;;;;35.13;27.63;;;9.90;64.10;;;;;;20767;6829;117545;-75
2022/03/18 01:52:40;;;;;;;29.77;25.83;;;9.50;65.30;;;;;;20762;6829;118838;-75
2022/03/18 01:55:06;;;;;;;37.42;33.28;;;9.50;65.20;;;;;;20556;6829;306321;-75
2022/03/18 01:57:31;;;;;;;37.53;33.70;;;9.70;65.20;;;;;;20524;6829;313074;-75
2022/03/18 01:59:57;;;;;;;37.35;33.47;;;10.30;62.50;;;;;;20551;6829;336114;-75
2022/03/18 02:02:23;;;;;;;32.77;28.50;;;10.30;62.10;;;;;;20766;6829;117677;-75
2022/03/18 02:04:48;;;;;;;36.93;33.10;;;10.20;62.00;;;;;;20547;6828;336944;-75
2022/03/18 02:07:15;;;;;;;30.37;27.27;;;10.10;62.10;;;;;;20748;6829;117863;-77
2022/03/18 02:09:40;;;;;;;28.73;25.57;;;10.10;62.10;;;;;;20765;6829;118078;-77
2022/03/18 02:12:06;;;;;;;27.77;24.80;;;9.80;63.70;;;;;;20764;6829;117458;-75
2022/03/18 02:14:32;;;;;;;29.13;24.60;;;9.60;64.60;;;;;;20762;6829;117890;-80
2022/03/18 02:16:59;;;;;;;28.90;25.17;;;9.50;65.20;;;;;;20774;6829;121531;-76
2022/03/18 02:19:24;;;;;;;30.47;24.93;;;9.30;65.60;;;;;;20745;6829;121025;-78
2022/03/18 02:21:50;;;;;;;29.50;24.90;;;9.20;66.20;;;;;;20773;6829;119014;-75
2022/03/18 02:24:15;;;;;;;26.55;23.75;;;9.10;66.50;;;;;;20758;6829;117414;-76
2022/03/18 02:26:41;;;;;;;32.77;29.47;;;9.10;66.80;;;;;;20557;6829;307735;-75
2022/03/18 02:29:07;;;;;;;33.33;29.87;;;9.30;66.20;;;;;;20534;6829;308287;-75
2022/03/18 02:31:32;;;;;;;34.00;30.60;;;9.70;64.90;;;;;;20532;6829;308360;-75
2022/03/18 02:33:58;;;;;;;28.70;25.30;;;10.00;62.20;;;;;;20769;6829;117327;-75
2022/03/18 02:36:24;;;;;;;28.00;24.43;;;10.00;62.20;;;;;;20769;6829;117520;-75
2022/03/18 02:38:50;;;;;;;32.00;28.80;;;9.70;63.80;;;;;;20561;6829;277994;-75
2022/03/18 02:41:15;;;;;;;27.77;24.65;;;9.80;63.90;;;;;;20738;6829;117647;-75
2022/03/18 02:43:41;;;;;;;32.70;29.57;;;9.80;63.70;;;;;;20552;6829;306605;-75
2022/03/18 02:46:06;;;;;;;29.10;25.60;;;9.90;63.40;;;;;;20768;6829;117690;-75
2022/03/18 02:48:33;;;;;;;27.57;24.57;;;9.60;63.80;;;;;;20745;6829;117333;-75
2022/03/18 02:50:58;;;;;;;25.67;23.03;;;9.60;63.80;;;;;;20762;6829;117941;-75
2022/03/18 02:53:24;;;;;;;28.20;23.10;;;9.40;64.50;;;;;;20751;6829;118445;-75
2022/03/18 02:55:49;;;;;;;25.12;22.55;;;9.30;65.20;;;;;;20766;6829;117343;-75
2022/03/18 02:58:16;;;;;;;25.67;22.45;;;9.10;66.10;;;;;;20765;6829;118217;-75
2022/03/18 03:00:41;;;;;;;32.03;28.73;;;9.10;66.10;;;;;;20557;6829;306372;-75
2022/03/18 03:03:07;;;;;;;26.80;23.90;;;9.40;65.00;;;;;;20761;6829;117689;-75
2022/03/18 03:08:18;;;;;;;25.93;22.77;;;9.30;65.10;;;;;;20774;6829;117750;-75
2022/03/18 03:10:44;;;;;;;33.03;28.67;;;9.10;65.50;;;;;;20558;6829;315641;-75
2022/03/18 03:13:10;;;;;;;26.50;23.47;;;9.30;65.10;;;;;;20762;6829;117487;-78
2022/03/18 03:15:35;;;;;;;31.87;28.73;;;9.40;64.60;;;;;;20371;6829;332272;-77
2022/03/18 03:18:01;;;;;;;30.07;25.07;;;9.60;64.20;;;;;;20761;6828;116992;-75
2022/03/18 03:20:27;;;;;;;26.75;23.85;;;9.60;64.00;;;;;;20770;6829;117237;-76
2022/03/18 03:22:52;;;;;;;31.47;28.37;;;9.40;64.40;;;;;;20556;6829;336441;-75
2022/03/18 03:25:18;;;;;;;28.53;24.47;;;9.50;64.10;;;;;;20746;6829;117645;-75
2022/03/18 03:27:43;;;;;;;27.23;24.30;;;9.50;64.10;;;;;;20767;6829;117384;-75
2022/03/18 03:30:10;;;;;;;33.53;30.13;;;9.50;64.70;;;;;;20557;6829;277090;-75
2022/03/18 03:32:37;;;;;;;33.00;29.65;;;9.80;63.00;;;;;;20547;6829;336444;-75
2022/03/18 03:35:04;;;;;;;31.95;28.77;;;9.80;63.00;;;;;;20550;6829;306542;-75
2022/03/18 03:37:29;;;;;;;33.05;29.55;;;10.30;60.00;;;;;;20527;6829;306996;-75
2022/03/18 03:39:55;;;;;;;28.30;24.10;;;10.30;60.00;;;;;;20766;6829;119023;-76
2022/03/18 03:42:24;;;;;;;26.92;24.05;;;9.80;61.80;;;;;;20772;6829;118418;-75
2022/03/18 03:44:51;;;;;;;27.63;23.57;;;9.80;61.80;;;;;;20766;6829;119988;-75
2022/03/18 03:47:17;;;;;;;32.10;29.00;;;9.60;62.80;;;;;;20520;6829;308446;-75
2022/03/18 03:49:44;;;;;;;33.83;30.42;;;9.70;62.90;;;;;;20561;6829;306634;-75
2022/03/18 03:52:11;;;;;;;29.23;26.07;;;10.00;61.00;;;;;;20769;6829;117416;-75
2022/03/18 03:54:34;;;;;;;33.53;30.12;;;9.90;61.80;;;;;;20544;6829;280378;-75
2022/03/18 03:56:59;;;;;;;30.70;24.92;;;9.90;61.80;;;;;;20767;6829;118365;-78
2022/03/18 03:59:25;;;;;;;27.00;23.07;;;9.60;62.50;;;;;;20742;6829;118399;-76
2022/03/18 04:01:52;;;;;;;29.47;24.23;;;9.30;63.10;;;;;;20763;6829;117694;-76
2022/03/18 04:04:17;;;;;;;31.83;28.63;;;9.40;63.20;;;;;;20553;6829;307510;-75
2022/03/18 04:06:44;;;;;;;29.83;25.43;;;9.50;63.80;;;;;;20763;6829;117767;-75
2022/03/18 04:09:09;;;;;;;26.90;23.50;;;9.50;63.60;;;;;;20766;6829;117218;-75
2022/03/18 04:11:36;;;;;;;32.63;29.33;;;9.40;64.00;;;;;;20548;6829;340632;-75
2022/03/18 04:14:01;;;;;;;32.90;29.57;;;9.40;63.40;;;;;;20555;6829;277228;-75
2022/03/18 04:16:27;;;;;;;28.00;24.97;;;9.80;62.50;;;;;;20768;6829;117801;-75
2022/03/18 04:18:52;;;;;;;32.33;29.03;;;9.70;62.20;;;;;;20560;6829;282565;-75
2022/03/18 04:21:19;;;;;;;29.07;25.87;;;9.80;61.90;;;;;;20744;6829;117929;-75
2022/03/18 04:23:44;;;;;;;27.87;23.70;;;9.70;61.80;;;;;;20767;6829;118084;-75
2022/03/18 04:26:10;;;;;;;25.33;22.62;;;9.50;62.60;;;;;;20767;6829;117289;-75
2022/03/18 04:28:35;;;;;;;26.60;23.27;;;9.30;63.30;;;;;;20767;6828;117753;-72
2022/03/18 04:31:03;;;;;;;30.60;27.50;;;9.40;63.60;;;;;;20563;6829;311694;-77
2022/03/18 04:33:29;;;;;;;32.87;29.63;;;9.40;63.60;;;;;;20533;6829;309710;-73
2022/03/18 04:35:54;;;;;;;32.95;29.63;;;9.70;62.40;;;;;;20568;6829;288801;-77
2022/03/18 04:38:20;;;;;;;29.33;24.63;;;10.00;60.20;;;;;;20779;6829;123884;-74
2022/03/18 04:40:45;;;;;;;28.47;24.23;;;9.90;61.00;;;;;;20770;6829;118570;-75
2022/03/18 04:43:12;;;;;;;32.67;29.27;;;9.70;62.10;;;;;;20539;6829;278956;-77
2022/03/18 04:45:37;;;;;;;32.75;29.45;;;9.70;61.60;;;;;;20550;6829;337328;-75
2022/03/18 04:48:03;;;;;;;28.73;25.47;;;10.00;60.00;;;;;;20772;6829;117298;-76
2022/03/18 04:50:29;;;;;;;27.42;24.33;;;9.90;60.90;;;;;;20770;6829;117433;-76
2022/03/18 04:52:54;;;;;;;32.20;29.00;;;9.60;61.50;;;;;;20563;6829;307814;-76
2022/03/18 04:55:20;;;;;;;27.83;24.83;;;9.70;61.70;;;;;;20748;6829;119980;-76
2022/03/18 04:57:46;;;;;;;27.13;22.87;;;9.40;62.20;;;;;;20769;6829;118050;-77
2022/03/18 05:00:12;;;;;;;29.40;23.83;;;9.40;62.20;;;;;;20762;6829;121485;-75
2022/03/18 05:02:37;;;;;;;32.95;29.55;;;9.20;62.80;;;;;;20556;6829;336201;-76
2022/03/18 05:05:03;;;;;;;27.73;24.77;;;9.40;62.80;;;;;;20773;6829;118811;-75
2022/03/18 05:07:28;;;;;;;28.43;23.67;;;9.40;62.70;;;;;;20741;6829;117570;-75
2022/03/18 05:09:54;;;;;;;32.60;29.20;;;9.30;63.70;;;;;;20558;6829;307476;-75
2022/03/18 05:12:19;;;;;;;29.70;25.37;;;9.40;62.70;;;;;;20767;6829;117469;-77
2022/03/18 05:14:45;;;;;;;27.43;24.43;;;9.40;62.40;;;;;;20770;6829;117314;-76
2022/03/18 05:17:11;;;;;;;31.70;28.52;;;9.30;63.00;;;;;;20534;6829;307403;-79
2022/03/18 05:19:37;;;;;;;28.03;25.00;;;9.40;62.60;;;;;;20769;6829;117500;-76
2022/03/18 05:22:03;;;;;;;26.87;23.77;;;9.40;62.30;;;;;;20768;6829;117756;-75
2022/03/18 05:24:28;;;;;;;26.37;22.60;;;9.20;62.80;;;;;;20771;6829;123524;-76
2022/03/18 05:26:54;;;;;;;28.67;25.23;;;9.10;63.40;;;;;;20779;6829;121468;-73
2022/03/18 05:29:19;;;;;;;33.22;29.63;;;9.00;63.80;;;;;;20525;6829;277560;-73
2022/03/18 05:31:46;;;;;;;29.37;25.58;;;9.20;63.50;;;;;;20773;6829;117943;-73
2022/03/18 05:34:15;;;;;;;32.67;29.25;;;9.20;63.20;;;;;;20555;6829;309149;-80
2022/03/18 05:36:40;;;;;;;32.07;25.63;;;9.40;62.70;;;;;;20775;6829;117174;-77
2022/03/18 05:39:06;;;;;;;32.00;28.85;;;9.40;62.50;;;;;;20561;6827;310590;-75
2022/03/18 05:41:33;;;;;;;33.17;29.83;;;9.60;61.70;;;;;;20534;6828;336451;-78
2022/03/18 05:44:00;;;;;;;33.28;29.80;;;9.90;60.70;;;;;;20557;6829;337347;-77
2022/03/18 05:46:25;;;;;;;32.53;29.20;;;10.10;58.70;;;;;;20561;6829;281573;-78
2022/03/18 05:48:51;;;;;;;29.80;26.17;;;10.30;58.50;;;;;;20766;6829;117175;-78
2022/03/18 05:51:17;;;;;;;33.30;29.70;;;10.20;58.10;;;;;;20534;6829;310816;-75
2022/03/18 05:53:42;;;;;;;33.23;29.93;;;10.10;57.90;;;;;;20567;6829;306830;-75
2022/03/18 05:58:54;;;;;;;29.23;24.77;;;10.10;58.00;;;;;;20783;6829;117963;-75
2022/03/18 06:01:20;;;;;;;33.20;29.83;;;9.70;60.00;;;;;;20551;6829;331699;-74
2022/03/18 06:03:46;;;;;;;34.67;30.97;;;9.80;60.00;;;;;;20554;6829;277561;-74
2022/03/18 06:06:12;;;;;;;31.10;26.10;;;9.80;59.40;;;;;;20754;6829;117197;-75
2022/03/18 06:14:08;;;;;;;27.50;24.50;;;9.30;60.80;;;;;;20770;6829;117294;-75
2022/03/18 06:16:37;;;;;;;30.33;25.70;;;9.10;61.60;;;;;;20740;6829;117802;-79
2022/03/18 06:19:01;;;;;;;30.17;24.90;;;9.00;62.20;;;;;;20761;6829;120980;-74
2022/03/18 06:21:28;;;;;;;34.35;30.62;;;8.90;62.60;;;;;;20544;6829;286344;-76
2022/03/18 06:23:53;;;;;;;34.27;30.70;;;9.10;62.30;;;;;;20557;6829;278401;-77
2022/03/18 06:26:19;;;;;;;32.20;26.50;;;9.40;61.20;;;;;;20774;6829;118478;-73
2022/03/18 06:28:44;;;;;;;31.77;26.47;;;9.50;60.90;;;;;;20759;6829;117911;-72
2022/03/18 06:31:10;;;;;;;33.65;30.25;;;9.30;61.30;;;;;;20565;6829;334891;-77
2022/03/18 06:33:44;;;;;;;34.85;31.20;;;9.40;60.90;;;;;;20564;6829;337233;-73
2022/03/18 06:36:07;;;;;;;34.77;31.10;;;9.70;60.10;;;;;;20558;6829;277987;-73
2022/03/18 06:38:33;;;;;;;34.73;30.97;;;10.00;58.40;;;;;;20560;6829;307276;-72
2022/03/18 06:40:58;;;;;;;30.80;27.10;;;10.20;57.50;;;;;;20768;6829;117434;-71
2022/03/18 06:43:24;;;;;;;34.47;30.77;;;10.00;57.80;;;;;;20535;6829;310998;-74
2022/03/18 06:45:49;;;;;;;30.67;25.60;;;10.10;57.90;;;;;;20762;6829;117629;-70
2022/03/18 06:48:15;;;;;;;34.77;31.23;;;9.90;59.00;;;;;;20563;6829;276783;-72
2022/03/18 06:50:41;;;;;;;31.05;27.20;;;9.80;59.00;;;;;;20771;6827;117376;-72
2022/03/18 06:53:07;;;;;;;35.80;32.08;;;9.80;59.00;;;;;;20563;6828;336390;-72
2022/03/18 06:55:32;;;;;;;35.83;32.13;;;9.90;59.20;;;;;;20538;6829;307868;-77
2022/03/18 06:57:58;;;;;;;32.83;29.27;;;10.20;57.70;;;;;;20776;6829;122056;-71
2022/03/18 07:00:23;;;;;;;30.23;26.97;;;10.00;57.60;;;;;;20772;6829;121274;-71
2022/03/18 07:02:49;;;;;;;30.73;25.52;;;9.80;59.50;;;;;;20769;6829;121850;-71
2022/03/18 07:05:15;;;;;;;30.93;26.63;;;9.60;60.10;;;;;;20752;6829;117594;-70
2022/03/18 07:07:41;;;;;;;35.83;32.13;;;9.40;60.90;;;;;;20561;6829;306758;-71
2022/03/18 07:10:07;;;;;;;35.95;29.58;;;9.60;60.20;;;;;;20766;6829;117244;-72
2022/03/18 07:12:33;;;;;;;36.10;32.23;;;9.70;59.70;;;;;;20549;6829;307082;-72
2022/03/18 07:14:59;;;;;;;36.30;32.50;;;9.80;59.80;;;;;;20554;6829;338584;-72
2022/03/18 07:20:12;;;;;;;35.80;32.10;;;10.10;57.90;;;;;;20536;6829;330346;-72
2022/03/18 07:22:36;;;;;;;31.43;28.17;;;10.20;57.30;;;;;;20760;6829;117600;-73
2022/03/18 07:25:02;;;;;;;35.63;32.03;;;10.10;57.50;;;;;;20558;6829;336911;-72
2022/03/18 07:27:27;;;;;;;37.40;33.70;;;10.20;57.10;;;;;;20539;6829;336965;-73
2022/03/18 07:29:53;;;;;;;34.10;29.70;;;10.50;56.30;;;;;;20768;6829;117555;-72
2022/03/18 07:32:19;;;;;;;32.37;28.83;;;10.10;57.10;;;;;;20771;6829;117350;-72
2022/03/18 07:34:45;;;;;;;35.03;27.43;;;10.10;57.10;;;;;;20769;6829;118056;-72
2022/03/18 07:37:10;;;;;;;39.13;35.03;;;9.90;58.80;;;;;;20562;6829;277400;-74
2022/03/18 07:39:36;;;;;;;34.88;31.08;;;10.00;57.40;;;;;;20591;6829;118567;-72
2022/03/18 07:42:02;;;;;;;35.20;31.17;;;9.90;58.90;;;;;;20773;6829;117482;-72
2022/03/18 07:44:28;;;;;;;35.93;29.37;;;9.80;58.90;;;;;;20777;6829;117700;-72
2022/03/18 07:46:53;;;;;;;39.47;35.35;;;9.70;59.30;;;;;;20562;6829;278764;-72
2022/03/18 07:49:19;;;;;;;38.75;32.55;;;9.90;58.50;;;;;;20754;6829;125288;-72
2022/03/18 07:51:45;;;;;;;39.67;32.00;;;9.90;58.60;;;;;;20767;6829;117499;-72
2022/03/18 07:54:10;;;;;;;40.23;36.03;;;9.70;59.00;;;;;;20565;6829;310396;-72
2022/03/18 07:56:36;;;;;;;42.37;38.07;;;9.90;58.20;;;;;;20557;6829;278489;-72
2022/03/18 07:59:01;;;;;;;40.57;33.27;;;10.20;56.00;;;;;;20770;6829;117276;-72
2022/03/18 08:01:27;;;;;;;42.33;38.00;;;10.20;56.00;;;;;;20538;6829;341338;-72
2022/03/18 08:03:52;;;;;;;36.45;32.40;;;10.30;55.40;;;;;;20775;6827;117409;-72
2022/03/18 08:06:20;;;;;;;42.90;38.40;;;10.30;55.70;;;;;;20557;6829;336168;-72
2022/03/18 08:08:45;;;;;;;39.43;32.70;;;10.40;55.00;;;;;;20764;6829;117617;-72
2022/03/18 08:11:11;;;;;;;42.63;38.13;;;10.40;55.20;;;;;;20546;6829;281893;-72
2022/03/18 08:13:36;;;;;;;38.77;33.23;;;10.50;54.70;;;;;;20766;6829;118058;-72
2022/03/18 08:16:02;;;;;;;41.73;37.57;;;10.40;55.00;;;;;;20561;6829;277640;-72
2022/03/18 08:18:27;;;;;;;37.58;33.33;;;10.50;54.20;;;;;;20768;6829;117409;-72
2022/03/18 08:20:53;;;;;;;42.27;38.00;;;10.50;54.50;;;;;;20559;6829;278155;-72
2022/03/18 08:23:18;;;;;;;42.07;37.87;;;10.60;53.90;;;;;;20539;6829;277554;-72
2022/03/18 08:25:44;;;;;;;41.03;37.03;;;10.80;53.20;;;;;;20537;6829;280887;-74
2022/03/18 08:28:09;;;;;;;40.83;36.53;;;11.00;52.00;;;;;;20555;6829;341597;-74
2022/03/18 08:30:35;;;;;;;35.83;31.33;;;11.20;51.50;;;;;;20767;6829;123820;-72
2022/03/18 08:33:01;;;;;;;41.50;37.30;;;11.10;52.10;;;;;;20554;6829;314814;-71
2022/03/18 08:35:26;;;;;;;41.28;37.17;;;11.10;51.70;;;;;;20540;6829;336522;-71
2022/03/18 08:37:56;;;;;;;40.40;36.35;;;11.30;51.10;;;;;;20561;6829;277892;-74
2022/03/18 08:40:21;;;;;;;36.90;32.83;;;11.40;50.40;;;;;;20770;6829;118003;-72
2022/03/18 08:42:47;;;;;;;38.40;32.17;;;11.30;51.00;;;;;;20693;6829;118091;-73
2022/03/18 08:45:13;;;;;;;38.10;31.90;;;10.70;52.90;;;;;;20752;6829;120158;-73
2022/03/18 08:47:39;;;;;;;42.50;31.83;;;10.70;52.60;;;;;;20770;6829;117665;-73
2022/03/18 08:50:05;;;;;;;36.10;31.30;;;10.50;53.30;;;;;;20768;6829;117533;-73
2022/03/18 08:52:30;;;;;;;36.75;31.08;;;10.40;54.00;;;;;;20767;6829;117435;-73
2022/03/18 08:54:56;;;;;;;39.07;35.07;;;10.30;54.20;;;;;;20542;6829;282659;-73
2022/03/18 08:57:21;;;;;;;40.17;35.97;;;10.50;52.70;;;;;;20534;6829;307516;-73
2022/03/18 08:59:47;;;;;;;34.60;29.97;;;10.90;51.50;;;;;;20772;6829;117851;-73
2022/03/18 09:02:12;;;;;;;35.20;31.12;;;11.00;52.00;;;;;;20768;6829;118595;-72
2022/03/18 09:04:38;;;;;;;36.30;30.10;;;10.90;52.60;;;;;;20768;6829;117686;-73
2022/03/18 09:07:04;;;;;;;38.73;34.93;;;10.80;53.20;;;;;;20560;6829;307138;-73
2022/03/18 09:09:29;;;;;;;39.53;35.73;;;11.00;52.10;;;;;;20516;6829;307048;-73
2022/03/18 09:11:55;;;;;;;35.25;30.70;;;11.40;50.60;;;;;;20768;6829;118108;-73
2022/03/18 09:14:22;;;;;;;33.53;29.93;;;11.50;50.70;;;;;;20769;6828;118945;-73
2022/03/18 09:16:49;;;;;;;33.87;29.70;;;11.20;52.20;;;;;;20772;6829;117397;-73
2022/03/18 09:19:15;;;;;;;39.45;35.45;;;11.50;51.10;;;;;;20523;6829;346438;-74
2022/03/18 09:21:40;;;;;;;34.47;30.70;;;11.40;51.00;;;;;;20755;6826;117659;-73
2022/03/18 09:24:07;;;;;;;38.83;35.05;;;11.50;51.30;;;;;;20553;6826;307360;-73
2022/03/18 09:26:32;;;;;;;36.23;31.93;;;11.70;50.10;;;;;;20781;6826;119679;-73
2022/03/18 09:28:58;;;;;;;33.07;29.57;;;11.80;50.90;;;;;;20780;6826;117798;-73
2022/03/18 09:31:25;;;;;;;38.80;34.93;;;11.70;51.50;;;;;;20550;6826;307650;-73
2022/03/18 09:33:51;;;;;;;38.53;34.63;;;11.90;49.20;;;;;;20572;6826;278280;-73
2022/03/18 09:36:18;;;;;;;35.42;31.17;;;12.20;48.10;;;;;;20778;6826;117896;-73
2022/03/18 09:38:42;;;;;;;32.83;29.23;;;12.20;48.80;;;;;;20773;6826;117535;-73
2022/03/18 09:41:07;;;;;;;33.93;30.13;;;11.90;49.30;;;;;;20779;6826;117395;-73
2022/03/18 09:43:33;;;;;;;32.63;28.73;;;11.70;49.90;;;;;;20762;6826;121762;-73
2022/03/18 09:45:58;;;;;;;37.17;33.40;;;11.50;50.50;;;;;;20562;6826;308079;-73
2022/03/18 09:48:25;;;;;;;36.73;30.83;;;11.70;48.80;;;;;;20781;6826;117475;-73
2022/03/18 09:50:51;;;;;;;31.00;27.80;;;11.70;49.20;;;;;;20775;6826;117835;-73
2022/03/18 09:53:17;;;;;;;36.73;33.13;;;11.80;49.40;;;;;;20547;6826;306964;-74
2022/03/18 09:55:43;;;;;;;36.67;33.20;;;11.70;48.60;;;;;;20569;6826;315870;-73
2022/03/18 09:58:08;;;;;;;33.07;29.60;;;12.10;47.70;;;;;;20783;6826;117346;-73
2022/03/18 10:00:34;;;;;;;36.67;33.10;;;12.10;48.40;;;;;;20565;6826;311807;-73
2022/03/18 10:03:06;;;;;;;37.05;33.53;;;12.20;47.40;;;;;;20564;6826;317517;-73
2022/03/18 10:05:31;;;;;;;34.30;30.70;;;12.50;46.60;;;;;;20739;6826;124340;-73
2022/03/18 10:07:58;;;;;;;36.65;33.05;;;12.50;47.10;;;;;;20574;6826;287873;-73
2022/03/18 10:10:23;;;;;;;32.53;29.13;;;12.50;46.50;;;;;;20777;6826;117445;-73
2022/03/18 10:12:50;;;;;;;36.63;31.30;;;12.40;48.80;;;;;;20779;6826;117913;-73
2022/03/18 10:15:17;;;;;;;31.30;28.00;;;12.30;48.70;;;;;;20754;6826;118632;-74
2022/03/18 10:17:42;;;;;;;32.40;28.90;;;12.20;48.40;;;;;;20773;6826;118361;-73
2022/03/18 10:20:08;;;;;;;30.45;27.25;;;12.10;48.80;;;;;;20771;6826;117483;-72
2022/03/18 10:22:36;;;;;;;28.57;25.50;;;12.10;48.90;;;;;;20720;6826;117759;-73
2022/03/18 10:25:00;;;;;;;33.80;30.60;;;11.90;48.80;;;;;;20565;6826;310459;-73
2022/03/18 10:27:25;;;;;;;33.70;30.40;;;12.10;46.80;;;;;;20550;6824;278433;-73
2022/03/18 10:29:51;;;;;;;28.77;25.77;;;12.60;45.80;;;;;;20783;6825;116665;-73
2022/03/18 10:32:17;;;;;;;33.53;30.33;;;12.80;45.20;;;;;;20566;6826;277794;-73
2022/03/18 10:37:41;;;;;;;27.90;25.00;;;12.80;45.60;;;;;;20760;6826;117555;-73
2022/03/18 10:40:06;;;;;;;27.63;24.77;;;12.70;46.30;;;;;;20773;6826;117441;-73
2022/03/18 10:42:33;;;;;;;30.87;27.97;;;12.70;45.30;;;;;;20567;6826;276694;-73
2022/03/18 10:44:59;;;;;;;28.27;25.27;;;12.70;45.30;;;;;;20782;6826;118851;-73
2022/03/18 10:47:30;;;;;;;26.62;23.73;;;12.80;45.90;;;;;;20758;6826;117352;-74
2022/03/18 10:50:00;;;;;;;27.47;24.70;;;12.70;46.60;;;;;;20778;6826;118064;-73
2022/03/18 10:52:26;;;;;;;30.00;27.15;;;12.70;46.60;;;;;;20528;6826;307442;-73
2022/03/18 10:54:51;;;;;;;26.87;24.03;;;12.90;44.50;;;;;;20789;6826;122733;-73
2022/03/18 10:57:20;;;;;;;30.13;27.43;;;13.10;45.00;;;;;;20561;6826;286220;-73
2022/03/18 10:59:43;;;;;;;29.58;26.98;;;13.70;42.90;;;;;;20557;6826;276784;-73
2022/03/18 11:02:08;;;;;;;26.10;23.70;;;13.60;42.70;;;;;;20782;6826;121222;-73
2022/03/18 11:04:34;;;;;;;28.55;25.85;;;13.70;43.30;;;;;;20558;6826;307616;-73
2022/03/18 11:12:31;;;;;;;30.55;27.77;;;14.70;40.60;;;;;;20563;6826;306290;-75
2022/03/18 11:14:58;;;;;;;29.17;26.52;;;14.70;40.60;;;;;;20557;6826;335401;-72
2022/03/18 11:17:23;;;;;;;28.87;26.20;;;14.80;40.20;;;;;;20554;6826;310472;-75
2022/03/18 11:19:49;;;;;;;29.48;26.87;;;14.90;40.00;;;;;;20561;6826;340051;-77
2022/03/18 11:22:15;;;;;;;29.03;26.43;;;15.10;39.90;;;;;;20564;6826;307484;-76
2022/03/18 11:24:40;;;;;;;26.57;23.87;;;15.20;40.30;;;;;;20776;6826;117438;-74
2022/03/18 11:27:09;;;;;;;25.07;22.43;;;15.10;41.30;;;;;;20773;6826;119264;-76
2022/03/18 11:29:34;;;;;;;23.47;20.50;;;14.80;42.10;;;;;;20754;6826;117530;-80
2022/03/18 11:32:09;;;;;;;26.07;23.57;;;14.50;42.50;;;;;;20775;6826;117476;-77
2022/03/18 11:34:50;;;;;;;26.53;23.47;;;14.30;42.90;;;;;;20754;6826;117934;-78
2022/03/18 11:37:14;;;;;;;28.93;26.13;;;14.10;43.30;;;;;;20464;6825;305618;-77
2022/03/18 11:39:39;;;;;;;29.00;26.47;;;14.20;40.70;;;;;;20547;6825;318463;-78
2022/03/18 11:42:05;;;;;;;28.87;26.27;;;14.40;40.60;;;;;;20563;6826;279152;-78
2022/03/18 11:44:52;;;;;;;26.00;23.63;;;14.60;40.20;;;;;;20784;6826;117457;-77
2022/03/18 11:47:20;;;;;;;28.93;26.33;;;14.60;41.40;;;;;;20507;6826;305994;-77
2022/03/18 11:49:45;;;;;;;29.30;26.60;;;14.70;40.20;;;;;;20565;6826;311757;-75
2022/03/18 11:52:11;;;;;;;27.13;24.53;;;14.70;40.20;;;;;;20770;6826;117480;-75
2022/03/18 11:54:53;;;;;;;28.15;25.55;;;14.70;40.70;;;;;;20563;6826;307011;-77
2022/03/18 11:57:36;;;;;;;29.13;26.53;;;14.60;39.40;;;;;;20541;6826;306780;-75
2022/03/18 12:00:07;;;;;;;28.73;26.03;;;15.00;39.90;;;;;;20562;6826;307528;-72
2022/03/18 12:02:34;;;;;;;25.67;23.10;;;14.90;39.80;;;;;;20779;6826;118572;-76
2022/03/18 12:04:59;;;;;;;28.80;26.20;;;14.80;40.80;;;;;;20566;6826;336251;-72
2022/03/18 12:07:27;;;;;;;29.50;26.70;;;14.80;40.10;;;;;;20552;6826;307742;-75
2022/03/18 12:09:57;;;;;;;29.80;26.97;;;15.00;40.00;;;;;;20548;6826;306196;-71
2022/03/18 12:12:26;;;;;;;26.30;23.67;;;15.30;39.20;;;;;;20775;6826;117813;-71
2022/03/18 12:14:51;;;;;;;25.77;23.27;;;15.20;40.10;;;;;;20774;6826;119002;-72
2022/03/18 12:17:18;;;;;;;25.87;23.23;;;14.90;40.80;;;;;;20755;6826;117558;-69
2022/03/18 12:19:50;;;;;;;28.75;26.05;;;14.70;41.40;;;;;;20571;6826;277424;-71
2022/03/18 12:22:16;;;;;;;29.45;26.75;;;14.80;39.70;;;;;;20559;6826;310590;-71
2022/03/18 12:24:41;;;;;;;27.80;25.30;;;15.10;39.30;;;;;;20562;6826;307404;-71
2022/03/18 12:27:08;;;;;;;27.80;25.20;;;15.40;38.30;;;;;;20572;6826;281891;-70
2022/03/18 12:29:33;;;;;;;30.37;27.50;;;15.50;38.30;;;;;;20548;6826;307988;-73
2022/03/18 12:32:03;;;;;;;25.57;23.07;;;15.40;39.10;;;;;;20785;6826;118224;-74
2022/03/18 12:34:28;;;;;;;25.63;23.10;;;15.40;39.10;;;;;;20783;6826;123199;-72
2022/03/18 12:36:54;;;;;;;23.90;21.67;;;15.10;40.20;;;;;;20787;6826;118388;-73
2022/03/18 12:39:20;;;;;;;24.70;22.17;;;14.70;41.50;;;;;;20770;6826;118404;-75
2022/03/18 12:41:46;;;;;;;24.70;22.20;;;14.70;41.40;;;;;;20784;6826;117610;-72